createdAt,value
2023-08-11T00:07:57.132Z,15.76
2023-08-11T00:17:57.728Z,15.75
2023-08-11T00:27:58.271Z,15.69
2023-08-11T00:37:58.800Z,15.62
2023-08-11T00:47:59.396Z,15.60
2023-08-11T00:57:59.913Z,15.54
2023-08-11T01:08:00.491Z,15.39
2023-08-11T01:18:01.044Z,15.38
2023-08-11T01:28:01.620Z,15.32
2023-08-11T01:38:02.139Z,15.25
2023-08-11T01:48:02.921Z,15.19
2023-08-11T01:58:03.099Z,15.14
2023-08-11T02:08:03.671Z,15.14
2023-08-11T02:18:04.220Z,15.11
2023-08-11T02:28:04.751Z,15.17
2023-08-11T02:38:05.300Z,15.23
2023-08-11T02:48:05.893Z,15.36
2023-08-11T02:58:06.396Z,15.41
2023-08-11T03:08:06.959Z,15.38
2023-08-11T03:18:07.478Z,15.38
2023-08-11T03:28:08.056Z,15.47
2023-08-11T03:38:08.535Z,15.54
2023-08-11T03:48:09.080Z,15.65
2023-08-11T03:58:16.536Z,15.74
2023-08-11T04:08:10.035Z,15.78
2023-08-11T04:18:10.530Z,15.84
2023-08-11T04:28:11.054Z,16.02
2023-08-11T04:38:11.544Z,16.11
2023-08-11T04:48:12.107Z,16.21
2023-08-11T04:58:12.578Z,16.33
2023-08-11T05:08:13.126Z,17.00
2023-08-11T05:18:13.595Z,18.62
2023-08-11T05:28:14.105Z,19.59
2023-08-11T05:38:14.583Z,18.73
2023-08-11T05:48:15.109Z,18.37
2023-08-11T05:58:15.582Z,18.58
2023-08-11T06:08:16.106Z,18.50
2023-08-11T06:18:16.585Z,18.58
2023-08-11T06:28:17.128Z,18.65
2023-08-11T06:38:17.584Z,18.88
2023-08-11T06:48:18.101Z,19.19
2023-08-11T06:58:18.573Z,19.23
2023-08-11T07:08:19.083Z,19.28
2023-08-11T07:18:19.567Z,19.39
2023-08-11T07:28:20.251Z,19.68
2023-08-11T07:38:20.727Z,19.96
2023-08-11T07:48:21.230Z,20.23
2023-08-11T07:58:21.692Z,20.58
2023-08-11T08:08:22.206Z,20.64
2023-08-11T08:18:22.684Z,20.72
2023-08-11T08:28:23.198Z,20.85
2023-08-11T08:38:23.686Z,20.99
2023-08-11T08:48:24.214Z,21.01
2023-08-11T08:58:24.715Z,21.29
2023-08-11T09:08:25.261Z,21.52
2023-08-11T09:18:25.730Z,21.72
2023-08-11T09:28:26.230Z,22.03
2023-08-11T09:38:26.715Z,22.33
2023-08-11T09:48:27.261Z,22.65
2023-08-11T09:58:27.721Z,22.88
2023-08-11T10:08:35.242Z,23.07
2023-08-11T10:18:28.707Z,23.38
2023-08-11T10:28:29.267Z,23.32
2023-08-11T10:38:29.694Z,23.00
2023-08-11T10:48:30.212Z,23.10
2023-08-11T10:58:30.696Z,23.05
2023-08-11T11:08:31.217Z,23.50
2023-08-11T11:18:31.700Z,23.57
2023-08-11T11:28:32.210Z,23.17
2023-08-11T11:38:32.681Z,23.39
2023-08-11T11:48:33.203Z,23.51
2023-08-11T11:58:33.673Z,23.68
2023-08-11T12:08:34.187Z,23.73
2023-08-11T12:18:34.650Z,23.84
2023-08-11T12:28:35.164Z,23.97
2023-08-11T12:38:35.646Z,23.83
2023-08-11T12:48:36.190Z,24.13
2023-08-11T12:58:36.672Z,23.88
2023-08-11T13:08:37.185Z,23.91
2023-08-11T13:18:37.661Z,24.15
2023-08-11T13:28:38.191Z,24.13
2023-08-11T13:38:38.657Z,24.15
2023-08-11T13:48:39.201Z,24.30
2023-08-11T13:58:39.632Z,24.21
2023-08-11T14:08:40.161Z,24.34
2023-08-11T14:18:40.656Z,24.35
2023-08-11T14:28:41.150Z,24.40
2023-08-11T14:38:41.625Z,24.27
2023-08-11T14:48:42.139Z,24.21
2023-08-11T14:58:42.623Z,24.45
2023-08-11T15:08:43.159Z,24.49
2023-08-11T15:18:43.663Z,24.43
2023-08-11T15:28:44.170Z,24.46
2023-08-11T15:38:44.640Z,24.42
2023-08-11T15:48:45.152Z,24.39
2023-08-11T15:58:45.638Z,24.20
2023-08-11T16:08:53.177Z,24.12
2023-08-11T16:18:46.658Z,24.16
2023-08-11T16:28:47.166Z,24.09
2023-08-11T16:38:47.670Z,24.10
2023-08-11T16:48:48.161Z,24.06
2023-08-11T16:58:48.645Z,23.98
2023-08-11T17:08:49.156Z,23.87
2023-08-11T17:18:50.937Z,23.76
2023-08-11T17:28:50.227Z,23.70
2023-08-11T17:38:50.722Z,23.65
2023-08-11T17:48:51.239Z,23.68
2023-08-11T17:58:51.720Z,23.53
2023-08-11T18:08:52.238Z,23.27
2023-08-11T18:18:52.714Z,23.01
2023-08-11T18:28:53.325Z,22.82
2023-08-11T18:38:53.804Z,22.61
2023-08-11T18:48:54.347Z,22.39
2023-08-11T18:58:54.826Z,22.24
2023-08-11T19:08:55.355Z,22.07
2023-08-11T19:18:55.913Z,21.91
2023-08-11T19:28:56.505Z,21.71
2023-08-11T19:38:57.039Z,21.59
2023-08-11T19:48:57.617Z,21.52
2023-08-11T19:58:58.180Z,21.42
2023-08-11T20:08:58.729Z,21.28
2023-08-11T20:18:59.277Z,21.14
2023-08-11T20:28:59.887Z,21.04
2023-08-11T20:39:00.407Z,20.97
2023-08-11T20:49:00.982Z,20.88
2023-08-11T20:59:01.502Z,20.77
2023-08-11T21:09:02.077Z,20.66
2023-08-11T21:19:02.614Z,20.50
2023-08-11T21:29:03.227Z,20.39
2023-08-11T21:39:03.763Z,20.33
2023-08-11T21:49:04.352Z,20.28
2023-08-11T21:59:04.883Z,20.21
2023-08-11T22:09:05.520Z,20.14
2023-08-11T22:19:06.060Z,20.05
2023-08-11T22:29:06.733Z,19.99
2023-08-11T22:39:07.241Z,19.94
2023-08-11T22:49:07.871Z,19.86
2023-08-11T22:59:08.379Z,19.83
2023-08-11T23:09:08.940Z,19.81
2023-08-11T23:19:09.471Z,19.78
2023-08-11T23:29:10.057Z,19.76
2023-08-11T23:39:10.596Z,19.76
2023-08-11T23:49:11.155Z,19.65
2023-08-11T23:59:11.675Z,19.59
